Terminal Aerodrome Forecast
Issued by NWS

Home | Current Version | Previous Version | Text Only | Print | Product List | Glossary Off
Versions: 1 2 3 4 5 6 7 8 9 10 11 12 13 14 15

075
FTUS41 KCLE 210901 AAA
TAFFDY
TAF AMD
KFDY 210901Z 2109/2206 16003KT 6SM BR SCT050 BKN250
      TEMPO 2109/2113 4SM BR BKN050
     FM211500 18004KT P6SM SCT250
     FM211800 16006KT P6SM SCT045
     FM220000 12004KT P6SM FEW250=

USA.gov is the U.S. government's official web portal to all federal, state and local government web resources and services.